Unity, Wisconsin
Current Conditions -  °F | °C
As of 1:54 AM on Friday 24 Oct 2014 (Local Time) from KMFI Reporting Station
Haze Haze  
Wind Chill: 44°   Ceiling: 200
Heat Index: 47°   Visibility: 0.75mi
Dew Point: 46°   Wind: 6mph
Humidity: 97%   Direction: 250°WSW
Pressure: 30.01"   Gusts: NA
Location:  44.85°N, 90.31°W
Report Text: KMFI 240654Z AUTO 25005KT 3/4SM BR OVC002 08/08 A3001 RMK AO2 SLP171 T00830078
Loading
Personal Weather Stations






























Interactive Weather Map
Tropical Storm Tracking
New forecast layout! Learn more

10-Day Weather Forecast

Advertisements
Track Severe Weather on mobile